Time;durP1;ratioP1;P1;durP2;ratioP2;P2;SDS_P1;SDS_P2;PMS_P1;PMS_P2;Temp;Humidity;BMP_temperature;BMP_pressure;BME280_temperature;BME280_humidity;BME280_pressure;Samples;Min_cycle;Max_cycle;Signal;HPM_P1;HPM_P2
2022/04/04 00:01:47;;;;;;;9.68;5.13;;;-0.20;99.90;;;;;;20903177;28;20036;-76
2022/04/04 00:11:48;;;;;;;10.55;5.13;;;-0.30;99.90;;;;;;20919173;28;20041;-76
2022/04/04 00:21:49;;;;;;;8.25;4.60;;;-0.70;99.90;;;;;;20898918;28;20033;-76
2022/04/04 00:31:50;;;;;;;7.55;4.13;;;-0.80;99.90;;;;;;20900028;28;20730;-76
2022/04/04 00:41:51;;;;;;;11.43;4.65;;;-0.90;99.90;;;;;;20917841;28;20454;-75
2022/04/04 00:51:52;;;;;;;8.77;3.95;;;-0.80;99.90;;;;;;20898884;28;20487;-76
2022/04/04 01:01:53;;;;;;;8.95;4.03;;;-0.70;99.90;;;;;;20899046;28;20033;-76
2022/04/04 01:12:06;;;;;;;7.40;3.92;;;-0.80;99.90;;;;;;20914359;28;20036;-76
2022/04/04 01:22:10;;;;;;;7.22;3.70;;;-1.00;99.90;;;;;;20913866;28;20272;-76
2022/04/04 01:32:11;;;;;;;7.85;3.95;;;-1.10;99.90;;;;;;20912510;28;20074;-76
2022/04/04 01:42:12;;;;;;;8.30;4.50;;;-1.20;99.90;;;;;;20911965;28;20033;-76
2022/04/04 01:52:13;;;;;;;8.55;4.10;;;-1.40;99.90;;;;;;20911622;28;20085;-76
2022/04/04 02:02:14;;;;;;;7.43;3.88;;;-1.50;99.90;;;;;;20911015;28;20036;-75
2022/04/04 02:12:14;;;;;;;10.52;5.15;;;-2.10;99.90;;;;;;20910668;28;20036;-75
2022/04/04 02:22:15;;;;;;;7.57;4.43;;;-2.10;99.90;;;;;;20912590;28;20097;-75
2022/04/04 02:32:16;;;;;;;8.73;5.25;;;-2.20;99.90;;;;;;20909275;28;20040;-76
2022/04/04 02:42:17;;;;;;;9.65;5.60;;;-2.40;99.90;;;;;;20908283;28;20032;-75
2022/04/04 02:52:18;;;;;;;12.55;5.60;;;-2.40;99.90;;;;;;20889055;28;20113;-76
2022/04/04 03:02:18;;;;;;;16.70;6.47;;;-2.50;99.90;;;;;;20907458;28;20078;-75
2022/04/04 03:12:19;;;;;;;14.90;6.72;;;-2.60;99.90;;;;;;20890317;28;20093;-76
2022/04/04 03:22:20;;;;;;;12.65;5.80;;;-2.50;99.90;;;;;;20909682;28;20054;-75
2022/04/04 03:32:21;;;;;;;15.40;6.72;;;-2.50;99.90;;;;;;20895194;28;20033;-75
2022/04/04 03:42:22;;;;;;;12.00;6.18;;;-2.60;99.90;;;;;;20888238;28;20487;-74
2022/04/04 03:52:23;;;;;;;12.30;6.45;;;-2.50;99.90;;;;;;20910719;23;20123;-75
2022/04/04 04:02:23;;;;;;;14.57;7.13;;;-2.50;99.90;;;;;;20879977;28;20096;-75
2022/04/04 04:12:24;;;;;;;10.40;5.88;;;-2.70;99.90;;;;;;20828200;28;20111;-75
2022/04/04 04:22:25;;;;;;;14.50;5.88;;;-2.50;99.90;;;;;;20816344;28;20037;-75
2022/04/04 04:32:26;;;;;;;12.32;6.80;;;-2.70;99.90;;;;;;20835494;28;20037;-75
2022/04/04 04:42:27;;;;;;;13.02;6.43;;;-2.80;99.90;;;;;;20834709;28;20036;-75
2022/04/04 04:52:28;;;;;;;10.77;5.65;;;-2.80;99.90;;;;;;20833931;28;20053;-75
2022/04/04 05:02:29;;;;;;;17.10;6.68;;;-2.90;99.90;;;;;;20815489;28;20040;-75
2022/04/04 05:12:30;;;;;;;12.68;6.90;;;-3.00;99.90;;;;;;20813819;28;20585;-74
2022/04/04 05:22:31;;;;;;;19.90;7.80;;;-3.10;99.90;;;;;;20831577;28;20030;-72
2022/04/04 05:32:32;;;;;;;15.00;6.38;;;-3.10;99.90;;;;;;20829250;28;20092;-74
2022/04/04 05:42:34;;;;;;;17.65;8.02;;;-3.10;99.90;;;;;;20830038;28;20427;-74
2022/04/04 05:52:35;;;;;;;21.35;7.78;;;-2.90;99.90;;;;;;20829242;28;20059;-73
2022/04/04 06:02:38;;;;;;;13.90;6.95;;;-2.40;99.90;;;;;;20828759;28;20037;-74
2022/04/04 06:12:40;;;;;;;12.82;6.25;;;-1.70;99.90;;;;;;20827467;28;20025;-75
2022/04/04 06:22:41;;;;;;;14.23;6.70;;;-0.90;99.90;;;;;;20825533;28;20555;-74
2022/04/04 06:32:44;;;;;;;17.80;8.55;;;-0.30;99.90;;;;;;20825913;28;20567;-76
2022/04/04 06:42:45;;;;;;;19.20;8.73;;;0.00;99.90;;;;;;20826008;28;20447;-75
2022/04/04 06:52:47;;;;;;;21.13;9.43;;;0.80;99.90;;;;;;20825010;28;20399;-74
2022/04/04 07:02:48;;;;;;;20.77;9.73;;;1.20;99.90;;;;;;20824785;28;20033;-73
2022/04/04 07:12:49;;;;;;;20.70;9.38;;;1.20;99.90;;;;;;20824390;28;20032;-75
2022/04/04 07:22:51;;;;;;;19.92;9.77;;;1.40;99.90;;;;;;20823775;28;20029;-75
2022/04/04 07:32:52;;;;;;;18.42;9.68;;;2.10;99.90;;;;;;20828779;28;20061;-74
2022/04/04 07:42:53;;;;;;;24.33;10.48;;;2.00;99.90;;;;;;20839544;28;20033;-76
2022/04/04 07:52:54;;;;;;;19.42;8.88;;;1.90;99.90;;;;;;20838544;28;20546;-74
2022/04/04 08:02:55;;;;;;;23.55;10.52;;;2.70;99.90;;;;;;20838175;28;20157;-76
2022/04/04 08:12:55;;;;;;;;;;;4.00;99.90;;;;;;20837309;28;20395;-75
2022/04/04 08:22:56;;;;;;;23.77;11.23;;;3.70;99.90;;;;;;20836415;28;20380;-74
2022/04/04 08:32:58;;;;;;;23.88;11.48;;;3.50;99.90;;;;;;20837261;28;20038;-75
2022/04/04 08:43:00;;;;;;;21.00;11.18;;;4.00;99.90;;;;;;20833744;28;20302;-75
2022/04/04 08:53:02;;;;;;;23.50;10.98;;;4.20;99.90;;;;;;20833981;28;20033;-75
2022/04/04 09:03:05;;;;;;;18.88;10.18;;;4.90;99.90;;;;;;20815456;28;20128;-75
2022/04/04 09:13:14;;;;;;;14.18;8.85;;;5.30;99.90;;;;;;20832559;28;20033;-75
2022/04/04 09:23:16;;;;;;;12.95;7.90;;;5.20;99.90;;;;;;20831976;28;20029;-75
2022/04/04 09:33:35;;;;;;;13.15;7.75;;;5.30;99.90;;;;;;20831433;28;20053;-75
2022/04/04 09:43:52;;;;;;;14.40;7.75;;;5.80;99.90;;;;;;20837181;28;20037;-75
2022/04/04 09:54:04;;;;;;;14.15;8.05;;;6.00;99.90;;;;;;20908837;22;20044;-75
2022/04/04 10:04:07;;;;;;;9.85;6.05;;;7.40;99.90;;;;;;20911207;28;20045;-75
2022/04/04 10:14:08;;;;;;;9.48;5.07;;;7.80;99.90;;;;;;20910653;28;20545;-75
2022/04/04 10:24:11;;;;;;;12.02;7.20;;;9.20;99.90;;;;;;20909882;28;20491;-75
2022/04/04 10:34:15;;;;;;;14.00;7.55;;;7.00;99.90;;;;;;20908687;28;20035;-75
2022/04/04 10:44:20;;;;;;;10.52;6.50;;;7.50;99.90;;;;;;20890529;28;20171;-75
2022/04/04 10:54:23;;;;;;;11.35;6.80;;;8.80;99.90;;;;;;20908596;28;20033;-74
2022/04/04 11:04:27;;;;;;;13.43;6.97;;;8.20;99.90;;;;;;20873923;28;20037;-74
2022/04/04 11:14:28;;;;;;;13.10;6.53;;;8.20;99.90;;;;;;20916403;28;20037;-74
2022/04/04 11:24:31;;;;;;;11.60;6.53;;;8.60;99.90;;;;;;20934301;28;20112;-75
2022/04/04 11:34:36;;;;;;;9.90;6.20;;;8.50;99.90;;;;;;20899503;28;20376;-74
2022/04/04 11:44:45;;;;;;;8.63;5.68;;;8.00;99.90;;;;;;20915847;28;20033;-74
2022/04/04 11:54:50;;;;;;;13.35;6.95;;;7.60;99.90;;;;;;20900190;28;20487;-74
2022/04/04 12:04:52;;;;;;;10.90;6.35;;;8.60;99.90;;;;;;20934967;28;20029;-75
2022/04/04 12:14:53;;;;;;;11.25;6.82;;;8.60;99.90;;;;;;20934392;28;20036;-75
2022/04/04 12:24:56;;;;;;;11.67;7.13;;;8.00;99.90;;;;;;20917958;28;20029;-74
2022/04/04 12:35:08;;;;;;;11.73;6.82;;;8.30;99.90;;;;;;20906009;28;20379;-73
2022/04/04 12:45:10;;;;;;;29.23;10.77;;;8.30;99.90;;;;;;20892684;28;20107;-75
2022/04/04 12:55:12;;;;;;;16.60;8.68;;;9.40;99.90;;;;;;20916963;28;20079;-74
2022/04/04 13:05:13;;;;;;;;;;;9.30;99.90;;;;;;20916666;28;20024;-75
2022/04/04 13:15:33;;;;;;;11.68;7.00;;;9.00;99.90;;;;;;20916229;28;20389;-75
2022/04/04 13:25:34;;;;;;;12.82;6.53;;;10.20;99.90;;;;;;20913391;28;20044;-75
2022/04/04 13:35:36;;;;;;;15.30;7.27;;;10.00;99.90;;;;;;20840624;28;20483;-75
2022/04/04 13:45:37;;;;;;;;;;;9.00;99.90;;;;;;20833465;28;20071;-75
2022/04/04 13:55:38;;;;;;;11.68;7.30;;;10.20;99.90;;;;;;20861020;28;20016;-75
2022/04/04 14:05:39;;;;;;;13.40;8.20;;;9.50;99.90;;;;;;20821083;28;20057;-74
2022/04/04 14:15:40;;;;;;;9.37;5.90;;;9.20;99.90;;;;;;20809735;28;20456;-74
2022/04/04 14:25:40;;;;;;;10.20;6.90;;;9.80;99.90;;;;;;20827970;28;20045;-74
2022/04/04 14:35:41;;;;;;;12.73;6.20;;;9.40;99.90;;;;;;20826864;28;20395;-74
2022/04/04 14:45:42;;;;;;;13.27;7.07;;;10.10;99.90;;;;;;20825273;28;20435;-74
2022/04/04 14:55:43;;;;;;;12.33;6.27;;;9.60;99.90;;;;;;20807683;28;20354;-74
2022/04/04 15:05:44;;;;;;;13.50;7.00;;;9.60;99.90;;;;;;20812928;28;20025;-75
2022/04/04 15:15:45;;;;;;;12.53;7.03;;;9.70;99.90;;;;;;20804620;28;20036;-75
2022/04/04 15:25:47;;;;;;;10.87;6.57;;;9.50;99.90;;;;;;20860382;28;20041;-75
2022/04/04 15:35:48;;;;;;;12.20;6.35;;;9.40;99.90;;;;;;20789668;28;20038;-75
2022/04/04 15:45:49;;;;;;;8.47;5.43;;;9.40;99.90;;;;;;20790939;28;20087;-75
2022/04/04 15:55:50;;;;;;;9.33;6.13;;;9.60;99.90;;;;;;20834862;22;20041;-75
2022/04/04 16:05:51;;;;;;;10.10;6.50;;;9.30;99.90;;;;;;20882576;28;20036;-74
2022/04/04 16:15:51;;;;;;;11.33;6.50;;;9.00;99.90;;;;;;20899749;28;20033;-74
2022/04/04 16:25:53;;;;;;;9.27;5.47;;;8.60;99.90;;;;;;20898923;28;20136;-75
2022/04/04 16:35:54;;;;;;;10.82;5.78;;;8.80;99.90;;;;;;20891463;28;20119;-75
2022/04/04 16:45:57;;;;;;;9.90;5.88;;;8.50;99.90;;;;;;20879714;28;20033;-75
2022/04/04 16:55:58;;;;;;;12.53;6.17;;;8.20;99.90;;;;;;20895705;28;20033;-75
2022/04/04 17:05:59;;;;;;;10.13;6.03;;;7.90;99.90;;;;;;20895259;28;20025;-77
2022/04/04 17:16:00;;;;;;;9.20;5.60;;;7.80;99.90;;;;;;20893642;28;20029;-75
2022/04/04 17:26:01;;;;;;;13.52;7.07;;;7.70;99.90;;;;;;20894273;28;20171;-75
2022/04/04 17:36:02;;;;;;;8.73;3.93;;;7.50;99.90;;;;;;20893396;28;20033;-76
2022/04/04 17:46:03;;;;;;;8.52;4.22;;;7.30;99.90;;;;;;20894908;28;20040;-76
2022/04/04 17:56:04;;;;;;;10.00;4.43;;;7.00;99.90;;;;;;20891731;28;20041;-75
2022/04/04 18:06:05;;;;;;;8.00;4.63;;;6.70;99.90;;;;;;20855776;28;20033;-75
2022/04/04 18:16:06;;;;;;;7.73;4.13;;;6.40;99.90;;;;;;20891365;28;20037;-75
2022/04/04 18:26:08;;;;;;;8.57;5.10;;;6.20;99.90;;;;;;20875506;28;20037;-75
2022/04/04 18:36:10;;;;;;;9.13;4.85;;;6.10;99.90;;;;;;20866383;28;20051;-74
2022/04/04 18:46:11;;;;;;;8.30;5.45;;;5.90;99.90;;;;;;20836742;28;20033;-76
2022/04/04 18:56:13;;;;;;;8.48;5.10;;;5.90;99.90;;;;;;20887349;28;20041;-76
2022/04/04 19:06:15;;;;;;;7.70;4.82;;;5.80;99.90;;;;;;20890647;28;20075;-76
2022/04/04 19:16:16;;;;;;;8.85;5.25;;;5.80;99.90;;;;;;20887917;28;20110;-76
2022/04/04 19:26:17;;;;;;;10.25;5.10;;;5.70;99.90;;;;;;20808566;28;20033;-76
2022/04/04 19:36:18;;;;;;;16.57;4.63;;;5.80;99.90;;;;;;20870089;28;20041;-77
2022/04/04 19:46:19;;;;;;;7.95;4.93;;;5.80;99.90;;;;;;20834529;28;20048;-77
2022/04/04 19:56:20;;;;;;;9.35;5.07;;;5.80;99.90;;;;;;20903345;28;20051;-76
2022/04/04 20:06:21;;;;;;;15.87;5.63;;;5.80;99.90;;;;;;20901130;28;20033;-75
2022/04/04 20:16:22;;;;;;;10.70;5.15;;;5.80;99.90;;;;;;20893679;28;20041;-76
2022/04/04 20:26:23;;;;;;;10.87;5.33;;;5.80;99.90;;;;;;20898212;28;20036;-76
2022/04/04 20:36:24;;;;;;;8.93;3.77;;;5.80;99.90;;;;;;20899300;28;20106;-75
2022/04/04 20:46:25;;;;;;;9.80;4.80;;;5.80;99.90;;;;;;20906755;28;20031;-76
2022/04/04 20:56:26;;;;;;;9.97;5.10;;;5.80;99.90;;;;;;20898806;28;20132;-75
2022/04/04 21:06:27;;;;;;;9.32;5.07;;;5.80;99.90;;;;;;20876583;28;20041;-76
2022/04/04 21:16:28;;;;;;;7.50;4.87;;;5.70;99.90;;;;;;20831268;28;20028;-76
2022/04/04 21:26:29;;;;;;;8.02;5.15;;;5.60;99.90;;;;;;20831253;28;20526;-76
2022/04/04 21:36:30;;;;;;;;;;;5.60;99.90;;;;;;20831593;28;20025;-76
2022/04/04 21:46:32;;;;;;;11.68;6.45;;;5.40;99.90;;;;;;20830243;28;20259;-74
2022/04/04 21:56:33;;;;;;;8.63;6.00;;;5.10;99.90;;;;;;20857204;23;20076;-75
2022/04/04 22:06:34;;;;;;;11.50;6.07;;;5.10;99.90;;;;;;20814077;28;20484;-77
2022/04/04 22:16:34;;;;;;;10.47;5.80;;;5.10;99.90;;;;;;20729143;28;20351;-75
2022/04/04 22:26:37;;;;;;;10.17;5.60;;;5.10;99.90;;;;;;20745827;28;20096;-76
2022/04/04 22:36:37;;;;;;;11.98;5.97;;;4.90;99.90;;;;;;20745465;28;20281;-75
2022/04/04 22:46:38;;;;;;;12.18;6.45;;;4.80;99.90;;;;;;20727051;28;20107;-76
2022/04/04 22:56:39;;;;;;;8.70;5.30;;;4.70;99.90;;;;;;20727612;28;20044;-76
2022/04/04 23:06:40;;;;;;;9.75;5.45;;;4.70;99.90;;;;;;20742917;28;20026;-76
2022/04/04 23:16:41;;;;;;;8.35;5.18;;;4.70;99.90;;;;;;20747498;28;20026;-76
2022/04/04 23:26:41;;;;;;;14.40;5.43;;;4.80;99.90;;;;;;20742695;28;20029;-76
2022/04/04 23:36:42;;;;;;;11.87;6.37;;;4.90;99.90;;;;;;20742455;28;20291;-75
2022/04/04 23:46:43;;;;;;;10.63;5.78;;;5.00;99.90;;;;;;20745277;28;20066;-75
2022/04/04 23:56:44;;;;;;;12.80;5.78;;;4.90;99.90;;;;;;20742955;28;20118;-75
